Latest Weather Observations for Albany Airport

IDW60801

Issued at 11:04 am WST Tuesday 24 January 2017 (issued every 30 minutes, with the page automatically refreshed every 10 minutes)

About weather observations | Map of weather stations | Latest weather observations for WA | Other Formats
Station Details ID: 009999 Name: ALBANY AIRPORT Lat: -34.94 Lon: 117.82 Height: 68.4 m
Data from the previous 72 hours. | See also: Recent months at Albany Airport
Date/Time
WST
Temp
°C
App
Temp
°C
Dew
Point
°C
Rel
Hum
%
Delta-T
°C
Wind Press
QNH
hPa
Press
MSL
hPa
Rain since
9am
mm
Dir  Spd
km/h
Gust
km/h
Spd
kts
Gust
kts
24/11:00am 21.4 19.0 6.9 39 7.4 SE 9 17 5 9 1020.5 - 0.0
24/10:30am 20.7 18.3 7.2 41 6.9 N 9 20 5 11 1020.8 - 0.0
24/10:00am 19.9 18.1 7.9 46 6.2 ESE 7 13 4 7 1021.0 - 0.0
24/09:30am 19.1 16.9 7.8 48 5.8 NNE 9 13 5 7 1021.1 - 0.0
24/09:00am 18.4 16.0 7.0 47 5.7 ENE 9 13 5 7 1021.1 1021.1 0.0
24/08:30am 17.9 16.1 8.1 52 5.0 NW 7 11 4 6 1021.1 - 0.0
24/08:00am 16.8 15.2 8.6 58 4.2 N 7 11 4 6 1021.3 - 0.0
24/07:30am 15.3 13.6 8.4 63 3.5 NNW 7 11 4 6 1021.3 - 0.0
24/07:00am 13.4 11.7 8.4 72 2.5 NW 7 9 4 5 1021.2 - 0.0
24/06:30am 10.4 10.1 8.8 90 0.8 CALM 0 0 0 0 1020.9 - 0.0
24/06:00am 7.7 5.9 7.3 97 0.2 NW 6 7 3 4 1020.6 1020.6 0.0
24/05:30am 6.7 4.6 6.0 95 0.3 N 6 7 3 4 1020.4 - 0.0
24/05:00am 6.5 4.4 5.8 95 0.3 N 6 7 3 4 1020.3 - 0.0
24/04:30am 6.4 4.1 5.5 94 0.4 NNW 7 7 4 4 1020.1 - 0.0
24/04:00am 6.9 4.7 6.0 94 0.4 N 7 7 4 4 1019.9 - 0.0
24/03:30am 7.1 4.9 6.4 95 0.3 N 7 9 4 5 1019.9 - 0.0
24/03:00am 8.1 6.2 6.8 91 0.6 NNW 6 6 3 3 1019.7 1019.7 0.0
24/02:30am 8.1 6.9 6.6 90 0.7 N 2 6 1 3 1019.8 - 0.0
24/02:00am 8.5 6.7 7.0 90 0.7 NW 6 6 3 3 1019.9 - 0.0
24/01:30am 7.7 5.6 6.8 94 0.4 N 7 7 4 4 1019.9 - 0.0
24/01:00am 7.2 5.2 6.1 93 0.5 N 6 7 3 4 1020.1 - 0.0
24/12:30am 6.8 4.7 5.9 94 0.4 N 6 7 3 4 1020.2 - 0.0
24/12:00am 7.3 5.1 6.0 91 0.6 N 7 9 4 5 1020.3 1020.3 0.0
 
Date/Time
WST
Temp
°C
App
Temp
°C
Dew
Point
°C
Rel
Hum
%
Delta-T
°C
Wind Press
QNH
hPa
Press
MSL
hPa
Rain since
9am
mm
Dir  Spd
km/h
Gust
km/h
Spd
kts
Gust
kts
23/11:30pm 7.9 5.7 6.4 90 0.7 N 7 9 4 5 1020.3 - 0.0
23/11:00pm 7.7 5.7 6.2 90 0.7 N 6 9 3 5 1020.3 - 0.0
23/10:30pm 8.8 7.2 6.2 84 1.2 WNW 4 7 2 4 1020.3 - 0.0
23/10:00pm 10.7 8.3 6.9 77 1.8 SW 9 11 5 6 1020.3 - 0.0
23/09:30pm 10.6 8.5 6.8 77 1.8 W 7 9 4 5 1020.3 - 0.0
23/09:00pm 12.2 10.2 7.2 71 2.4 WSW 7 9 4 5 1020.2 1020.2 0.0
23/08:30pm 12.4 10.0 7.0 69 2.6 SW 9 11 5 6 1019.9 - 0.0
23/08:00pm 13.4 11.4 7.2 66 3.0 SW 7 9 4 5 1019.5 - 0.0
23/07:30pm 14.3 11.5 7.1 62 3.5 SW 11 13 6 7 1019.2 - 0.0
23/07:00pm 16.2 12.1 6.4 52 4.8 SSW 17 22 9 12 1019.0 - 0.0
23/06:30pm 17.3 13.3 6.6 49 5.3 SW 17 24 9 13 1018.5 - 0.0
23/06:00pm 17.6 12.6 6.5 48 5.5 SSW 22 30 12 16 1018.1 1018.1 0.0
23/05:30pm 18.1 12.6 6.1 45 5.9 SSW 24 35 13 19 1017.9 - 0.0
23/05:00pm 17.9 12.3 7.1 49 5.4 SSW 26 39 14 21 1017.7 - 0.0
23/04:30pm 18.8 13.9 7.1 46 5.9 SSW 22 33 12 18 1017.4 - 0.0
23/04:00pm 18.3 12.7 7.2 48 5.6 SSW 26 37 14 20 1017.2 - 0.0
23/03:30pm 19.2 13.6 7.2 45 6.1 SSW 26 35 14 19 1017.2 - 0.0
23/03:00pm 19.5 13.9 7.1 44 6.3 SSW 26 37 14 20 1017.1 1017.1 0.0
23/02:30pm 19.0 14.1 7.1 46 6.0 SSW 22 33 12 18 1017.3 - 0.0
23/02:00pm 19.3 14.0 7.0 44 6.2 SSW 24 33 13 18 1017.3 - 0.0
23/01:30pm 19.8 13.8 5.3 38 7.1 SW 26 44 14 24 1017.2 - 0.0
23/01:00pm 20.3 14.3 5.3 37 7.4 SW 26 35 14 19 1017.2 - 0.0
23/12:30pm 20.9 14.4 4.8 35 7.9 SW 28 43 15 23 1017.0 - 0.0
23/12:00pm 19.0 12.4 6.1 43 6.4 SW 30 43 16 23 1016.9 1016.9 0.0
23/11:30am 19.9 13.2 5.5 39 7.1 SW 30 39 16 21 1016.8 - 0.0
23/11:00am 20.4 13.7 5.7 38 7.3 SW 30 43 16 23 1016.6 - 0.0
23/10:30am 19.3 13.5 6.3 42 6.5 SW 26 37 14 20 1016.6 - 0.0
23/10:00am 17.9 12.6 6.9 48 5.5 SW 24 35 13 19 1016.5 - 0.0
23/09:30am 18.0 11.1 6.3 46 5.8 SW 32 44 17 24 1016.2 - 0.0
23/09:00am 17.5 10.6 6.3 47 5.5 WSW 32 41 17 22 1016.0 1016.0 0.8
23/08:30am 17.2 10.9 7.5 53 4.9 SW 30 39 16 21 1015.8 - 0.8
23/08:00am 17.1 13.3 9.0 59 4.2 SW 19 28 10 15 1015.6 - 0.8
23/07:30am 16.0 13.0 10.5 70 2.9 W 17 24 9 13 1015.2 - 0.8
23/07:00am 14.3 11.7 12.1 87 1.2 W 17 22 9 12 1014.9 - 0.8
23/06:30am 12.9 11.4 12.0 94 0.5 WNW 11 13 6 7 1014.6 - 0.8
23/06:00am 12.6 10.7 11.9 95 0.4 NW 13 17 7 9 1014.2 1014.1 0.8
23/05:30am 12.6 9.9 11.7 94 0.5 WNW 17 22 9 12 1013.7 - 0.8
23/05:07am 13.0 10.3 11.7 92 0.7 W 17 22 9 12 1013.6 - 0.8
23/05:00am 12.9 10.2 11.6 92 0.7 W 17 22 9 12 1013.5 - 0.8
23/04:48am 13.3 10.4 11.0 86 1.2 W 17 20 9 11 1013.4 - 0.6
23/04:30am 13.6 10.1 10.3 80 1.7 W 19 26 10 14 1012.8 - 0.0
23/04:00am 13.3 9.4 10.8 85 1.3 WNW 22 30 12 16 1012.8 - 0.0
23/03:30am 13.3 8.8 10.2 81 1.6 WNW 24 33 13 18 1012.7 - 0.0
23/03:00am 13.3 9.6 9.6 78 1.9 WNW 19 22 10 12 1012.1 1012.0 0.0
23/02:30am 13.8 10.2 9.9 77 2.0 WNW 19 24 10 13 1011.9 - 0.0
23/02:00am 13.4 10.3 10.3 81 1.6 WNW 17 20 9 11 1011.9 - 0.0
23/01:30am 13.8 11.5 10.4 80 1.8 WNW 13 17 7 9 1011.9 - 0.0
23/01:00am 14.7 11.2 10.1 74 2.4 WNW 19 30 10 16 1012.0 - 0.0
23/12:30am 13.4 11.6 10.7 84 1.4 WNW 11 11 6 6 1012.3 - 0.0
23/12:00am 13.3 11.4 10.4 82 1.5 WNW 11 15 6 8 1012.4 1012.3 0.0
 
Date/Time
WST
Temp
°C
App
Temp
°C
Dew
Point
°C
Rel
Hum
%
Delta-T
°C
Wind Press
QNH
hPa
Press
MSL
hPa
Rain since
9am
mm
Dir  Spd
km/h
Gust
km/h
Spd
kts
Gust
kts
22/11:30pm 14.6 12.8 11.0 79 1.9 WNW 11 13 6 7 1012.4 - 0.0
22/11:00pm 15.6 13.2 11.3 75 2.3 WNW 15 19 8 10 1012.3 - 0.0
22/10:30pm 16.3 14.0 10.5 68 3.1 W 13 19 7 10 1012.2 - 0.0
22/10:00pm 16.2 14.4 10.8 70 2.9 WNW 11 15 6 8 1012.3 - 0.0
22/09:30pm 16.6 13.9 10.4 67 3.3 W 15 19 8 10 1012.3 - 0.0
22/09:00pm 16.7 14.8 9.2 61 3.9 WNW 9 13 5 7 1012.3 1012.2 0.0
22/08:30pm 16.7 14.0 9.0 60 4.0 W 13 15 7 8 1012.2 - 0.0
22/08:00pm 16.6 13.9 8.9 60 4.0 W 13 17 7 9 1012.0 - 0.0
22/07:30pm 16.7 13.1 8.5 58 4.2 WSW 17 26 9 14 1011.8 - 0.0
22/07:00pm 17.5 12.6 8.4 55 4.7 WSW 24 35 13 19 1011.4 - 0.0
22/06:30pm 18.6 13.9 7.9 49 5.5 WSW 22 32 12 17 1010.9 - 0.0
22/06:00pm 18.6 12.8 7.9 49 5.5 WSW 28 39 15 21 1010.4 1010.4 0.0
22/05:30pm 19.0 13.7 8.4 50 5.5 SW 26 35 14 19 1010.1 - 0.0
22/05:00pm 19.8 14.4 8.0 46 6.1 SW 26 35 14 19 1009.8 - 0.0
22/04:30pm 20.7 15.5 7.3 42 6.9 WSW 24 37 13 20 1009.8 - 0.0
22/04:00pm 20.6 14.3 5.8 38 7.4 SW 28 43 15 23 1009.9 - 0.0
22/03:30pm 20.0 13.1 6.5 41 6.8 WSW 32 54 17 29 1010.1 - 0.0
22/03:24pm 20.3 13.3 6.2 40 7.1 SW 32 54 17 29 1010.0 - 0.0
22/03:00pm 20.3 13.6 5.6 38 7.3 WSW 30 43 16 23 1010.1 1010.1 0.0
22/02:40pm 20.9 15.1 7.8 42 6.8 WSW 28 48 15 26 1010.0 - 0.0
22/02:30pm 20.3 13.8 8.2 45 6.3 SW 32 46 17 25 1010.1 - 0.0
22/02:00pm 20.1 13.7 8.5 47 6.1 WSW 32 46 17 25 1010.0 - 0.0
22/01:30pm 21.3 15.0 8.9 45 6.6 SW 32 48 17 26 1009.9 - 0.0
22/01:00pm 20.9 14.9 8.8 46 6.4 WSW 30 44 16 24 1009.8 - 0.0
22/12:30pm 20.8 14.6 9.4 48 6.1 WSW 32 44 17 24 1009.7 - 0.0
22/12:00pm 19.8 13.9 10.4 54 5.1 SW 32 39 17 21 1009.8 1009.8 0.0
22/11:30am 19.8 14.5 11.1 57 4.8 SW 30 43 16 23 1009.7 - 0.0
22/11:00am 20.9 16.2 10.7 52 5.6 WSW 26 44 14 24 1009.6 - 0.0
22/10:30am 21.2 17.5 10.2 49 6.0 WSW 20 30 11 16 1009.8 - 0.0
22/10:00am 19.7 15.1 9.8 52 5.3 WSW 24 35 13 19 1009.9 - 0.0
22/09:30am 19.5 14.9 10.9 57 4.7 SW 26 35 14 19 1009.8 - 0.0
22/09:00am 19.6 15.0 11.2 58 4.6 WSW 26 37 14 20 1009.7 1009.7 0.0
22/08:30am 17.7 15.6 14.6 82 1.8 W 19 26 10 14 1009.7 - 0.0
22/08:15am 17.1 15.7 15.6 91 0.9 W 17 22 9 12 1009.8 - 0.0
22/08:12am 16.9 15.4 15.4 91 0.9 W 17 22 9 12 1009.8 - 0.0
22/08:00am 16.5 15.1 15.5 94 0.6 W 17 22 9 12 1009.7 - 0.0
22/07:30am 16.6 15.5 15.2 91 0.8 W 15 20 8 11 1009.7 - 0.0
22/07:17am 16.5 14.7 14.4 87 1.2 W 17 24 9 13 1009.6 - 0.0
22/07:09am 16.7 15.2 14.1 85 1.5 W 15 19 8 10 1009.6 - 0.0
22/07:00am 16.1 14.5 14.0 87 1.2 W 15 19 8 10 1009.5 - 0.0
22/06:56am 16.0 14.5 14.1 88 1.1 W 15 20 8 11 1009.6 - 0.0
22/06:49am 16.0 14.3 13.7 86 1.3 WSW 15 20 8 11 1009.6 - 0.0
22/06:30am 15.4 13.4 12.7 84 1.5 W 15 19 8 10 1009.5 - 0.0
22/06:00am 13.5 12.6 12.6 94 0.5 W 9 13 5 7 1009.4 1009.4 0.0
22/05:30am 10.7 9.4 10.1 96 0.3 NW 7 9 4 5 1009.0 - 0.0
22/05:12am 11.8 10.5 11.4 97 0.2 WNW 9 9 5 5 1008.8 - 0.0
22/05:00am 11.0 9.9 10.6 97 0.2 NW 7 9 4 5 1008.8 - 0.0
22/04:40am 11.2 10.7 10.6 96 0.3 N 4 9 2 5 1008.6 - 0.0
22/04:30am 11.8 11.3 10.8 94 0.5 NW 4 11 2 6 1008.7 - 0.0
22/04:00am 13.0 11.6 12.1 94 0.5 WNW 11 13 6 7 1008.9 - 0.0
22/03:30am 13.0 11.6 12.1 94 0.5 WNW 11 15 6 8 1009.1 - 0.0
22/03:00am 12.7 11.9 11.8 94 0.5 WNW 7 9 4 5 1009.0 1009.0 0.0
22/02:30am 13.5 12.9 12.2 92 0.7 W 7 9 4 5 1008.8 - 0.0
22/02:00am 13.6 13.2 12.3 92 0.7 W 6 7 3 4 1008.9 - 0.0
22/01:30am 14.6 14.2 13.0 90 0.9 W 7 7 4 4 1009.0 - 0.0
22/01:00am 14.4 15.0 13.0 91 0.8 WSW 2 7 1 4 1009.1 - 0.0
22/12:30am 14.3 15.2 13.0 92 0.7 CALM 0 0 0 0 1009.4 - 0.0
22/12:00am 14.8 14.7 13.2 90 0.9 WSW 6 7 3 4 1009.7 1009.7 0.0
 
Date/Time
WST
Temp
°C
App
Temp
°C
Dew
Point
°C
Rel
Hum
%
Delta-T
°C
Wind Press
QNH
hPa
Press
MSL
hPa
Rain since
9am
mm
Dir  Spd
km/h
Gust
km/h
Spd
kts
Gust
kts
21/11:30pm 15.2 14.9 13.2 88 1.1 WSW 7 9 4 5 1009.9 - 0.0
21/11:00pm 15.6 15.6 13.5 87 1.2 SSW 6 7 3 4 1009.9 - 0.0
21/10:30pm 16.7 17.1 13.7 82 1.7 SSW 4 6 2 3 1010.0 - 0.0
21/10:00pm 16.9 16.9 13.7 81 1.8 SSW 6 6 3 3 1010.3 - 0.0
21/09:30pm 16.6 16.6 13.6 82 1.7 SSW 6 7 3 4 1010.3 - 0.0
21/09:00pm 16.4 16.1 13.4 82 1.7 SSW 7 9 4 5 1010.2 1010.2 0.0
21/08:30pm 16.3 16.3 13.5 83 1.6 SSW 6 7 3 4 1010.0 - 0.0
21/08:00pm 17.1 16.9 13.6 80 2.0 SSW 7 9 4 5 1009.9 - 0.0
21/07:30pm 18.2 16.9 13.6 74 2.6 SSW 13 17 7 9 1009.7 - 0.0
21/07:00pm 19.5 18.6 13.8 69 3.3 S 11 15 6 8 1009.4 - 0.0
21/06:30pm 20.2 18.9 13.8 66 3.7 SE 13 17 7 9 1009.2 - 0.0
21/06:00pm 20.5 18.9 13.8 65 3.9 SSE 15 19 8 10 1008.9 1008.9 0.0
21/05:30pm 21.1 19.5 13.9 63 4.2 SE 15 24 8 13 1008.5 - 0.0
21/05:00pm 20.8 18.7 13.7 64 4.1 SSE 17 24 9 13 1008.4 - 0.0
21/04:30pm 21.6 19.6 13.9 61 4.5 SSE 17 24 9 13 1008.4 - 0.0
21/04:00pm 21.8 20.3 14.1 61 4.5 SSE 15 24 8 13 1008.5 - 0.0
21/03:30pm 23.1 21.2 14.1 57 5.3 S 17 24 9 13 1008.4 - 0.0
21/03:00pm 23.3 21.0 14.1 56 5.4 S 19 26 10 14 1008.5 1008.5 0.0
21/02:30pm 22.8 20.4 13.9 57 5.2 S 19 24 10 13 1008.4 - 0.0
21/02:00pm 23.7 21.1 13.8 53 5.8 SSW 20 28 11 15 1008.4 - 0.0
21/01:30pm 24.3 22.3 13.8 52 6.2 S 17 22 9 12 1008.6 - 0.0
21/01:00pm 23.9 22.0 14.1 54 5.8 S 17 24 9 13 1008.7 - 0.0
21/12:30pm 23.5 21.9 14.0 55 5.6 S 15 24 8 13 1009.0 - 0.0
21/12:00pm 23.5 21.5 14.0 55 5.6 S 17 22 9 12 1009.3 1009.3 0.0
21/11:30am 23.6 22.0 13.9 54 5.7 SSE 15 22 8 12 1009.5 - 0.0

Other Formats:

Comma delimited format used in spreadsheet applications
http://www.bom.gov.au/fwo/IDW60801/IDW60801.94802.axf

JavaScript Object Notation format (JSON) in row-major order
http://www.bom.gov.au/fwo/IDW60801/IDW60801.94802.json